Aviation Digital Data Service (ADDS)

Output produced by METARs form (0516 UTC 27 September 2016)
found at http://aviationweather.gov/adds/metars/
 
KSYR 270425Z 2704/2724 20010G18KT P6SM SCT025 OVC040 
     FM270600 23006KT P6SM SCT025 BKN040 
     FM271300 23008KT P6SM SCT050